world map with ETSB marked

ETSB - Airport

This information may not be accurate or current and is not valid for navigation or flight planning. No warranty of fitness for any purpose is made or implied.

flag of Rhineland-Palatinateflag of Germany

Donate via PayPal

Additional information is available on the NEW Great Circle Mapper

Location
City:  Büchel, Rhineland-Palatinate, Germany
ICAO:ETSB

Details
Type:Airport (Flugplatz, Airfield)
Use:Military
Latitude:50°10'26"N (50.173850)
Longitude:7°03'48"E (7.063367)
Elevation:1568 ft (478 m)
Runways:1
Longest:8225 × 148 ft (2507 × 45 m)

Time
Timezone:UTC+1 (DST+4)
Local Time:

Weather
METAR:ETSB  041320Z 21012KT 9999 FEW015 BKN160 01/M05 Q1025 BLU BLU
TAF:ETSB  (expired)

Related Locations
Nearby:
Farthest:CHT: 11961 mi / 19250 km
Waitangi [Tuuta], CIT, NZ

Find:

   beyond  
but within

Other Information
Maps:
Sources:

  

Airport Diagram

Airport diagram for ETSB

Airport diagram (OBSOLETE) from NGA

 


Great Circle Mapper   Great Circle Mapper
Great Circle Mapper FAQ   Great Circle Mapper FAQ
  Karl's Home Page
KLS²   KLS² Home
   GC on Facebook
Airlines of the World   Airlines of the World
Donate via PayPal


Copyright © 2004-2020, Karl L. Swartz. All rights reserved.
All trademarks mentioned herein belong to their respective owners.

Please see credits for attribution and copyright information.

Karl Swartz <karl@kls2.com>
  Powered by FreeBSD
Valid HTML 4.01!
Labeled with ICRA
hCard Microformat
Geo Microformat